Time;durP1;ratioP1;P1;durP2;ratioP2;P2;SDS_P1;SDS_P2;PMS_P1;PMS_P2;Temp;Humidity;BMP_temperature;BMP_pressure;BME280_temperature;BME280_humidity;BME280_pressure;Samples;Min_cycle;Max_cycle;Signal;HPM_P1;HPM_P2
2024/01/02 00:00:06;;;;;;;86.80;40.20;;;;;;;8.77;67.80;98624.52;108037;1254;70807;-66
2024/01/02 00:02:38;;;;;;;92.20;41.20;;;;;;;8.84;67.42;98625.20;107867;1254;72506;-67
2024/01/02 00:05:06;;;;;;;85.50;38.20;;;;;;;8.82;67.41;98621.66;108013;1254;61460;-66
2024/01/02 00:07:32;;;;;;;83.60;39.40;;;;;;;8.64;68.05;98616.11;108038;1254;60380;-67
2024/01/02 00:09:59;;;;;;;88.90;40.40;;;;;;;8.53;68.48;98611.09;108039;1254;74282;-67
2024/01/02 00:12:26;;;;;;;85.90;39.60;;;;;;;8.57;68.06;98612.13;108036;1254;70485;-67
2024/01/02 00:14:52;;;;;;;76.60;36.60;;;;;;;8.63;67.81;98613.36;108033;1254;72824;-67
2024/01/02 00:17:19;;;;;;;81.50;39.30;;;;;;;8.49;68.24;98617.45;108012;1254;60485;-66
2024/01/02 00:19:46;;;;;;;71.90;36.20;;;;;;;8.55;67.93;98614.65;108053;1254;60405;-67
2024/01/02 00:22:13;;;;;;;87.70;37.20;;;;;;;8.55;67.86;98612.06;108028;1254;73834;-68
2024/01/02 00:24:40;;;;;;;80.50;38.90;;;;;;;8.66;67.43;98611.98;107839;1257;70589;-67
2024/01/02 00:27:06;;;;;;;78.10;36.50;;;;;;;8.69;67.08;98608.34;108041;1254;73120;-66
2024/01/02 00:29:34;;;;;;;81.60;38.60;;;;;;;8.55;67.48;98608.33;107823;1254;60370;-63
2024/01/02 00:32:00;;;;;;;86.20;40.00;;;;;;;8.72;66.85;98607.98;108034;1254;60193;-67
2024/01/02 00:34:27;;;;;;;77.70;35.60;;;;;;;8.80;66.63;98600.92;107767;1254;74295;-65
2024/01/02 00:36:54;;;;;;;86.70;40.40;;;;;;;8.80;66.36;98595.13;107979;1254;70687;-68
2024/01/02 00:39:20;;;;;;;79.80;38.10;;;;;;;8.78;66.43;98596.99;108028;1254;72464;-67
2024/01/02 00:41:49;;;;;;;82.10;37.70;;;;;;;8.66;66.76;98595.36;107814;1254;61906;-65
2024/01/02 00:44:16;;;;;;;88.20;41.70;;;;;;;8.77;66.59;98592.15;108006;1254;60440;-66
2024/01/02 00:46:43;;;;;;;86.00;38.80;;;;;;;8.83;66.36;98594.80;108019;1254;73748;-67
2024/01/02 00:49:09;;;;;;;87.20;41.50;;;;;;;8.82;66.20;98594.30;108082;1254;68965;-67
2024/01/02 00:51:36;;;;;;;82.20;38.90;;;;;;;8.93;66.09;98590.73;108052;1254;72942;-67
2024/01/02 00:54:03;;;;;;;78.90;38.20;;;;;;;9.46;64.38;98588.30;108097;1254;61080;-67
2024/01/02 00:56:29;;;;;;;86.00;42.00;;;;;;;8.92;65.63;98590.60;108087;1254;60335;-66
2024/01/02 00:58:56;;;;;;;74.80;35.80;;;;;;;8.80;66.14;98590.73;107895;1254;71921;-66
2024/01/02 01:01:23;;;;;;;74.30;35.50;;;;;;;8.69;66.22;98586.98;108050;1254;70841;-67
2024/01/02 01:03:50;;;;;;;75.80;35.90;;;;;;;8.74;65.88;98581.46;107997;1259;73025;-67
2024/01/02 01:06:17;;;;;;;85.50;37.00;;;;;;;8.72;65.87;98582.64;107997;1254;60972;-65
2024/01/02 01:08:44;;;;;;;77.70;36.30;;;;;;;8.73;65.54;98580.48;107986;1254;60370;-67
2024/01/02 01:11:12;;;;;;;64.20;32.40;;;;;;;8.81;65.22;98580.04;107994;1254;73615;-66
2024/01/02 01:13:39;;;;;;;69.20;33.60;;;;;;;8.74;65.18;98580.59;107970;1254;70189;-67
2024/01/02 01:16:06;;;;;;;58.90;27.70;;;;;;;8.88;64.46;98576.31;107920;1254;72499;-67
2024/01/02 01:18:33;;;;;;;44.00;19.90;;;;;;;8.71;64.73;98575.31;107791;1254;59973;-66
2024/01/02 01:20:59;;;;;;;39.50;18.00;;;;;;;8.59;64.40;98571.78;107916;1259;60349;-67
2024/01/02 01:23:28;;;;;;;33.50;17.10;;;;;;;8.89;63.49;98571.02;108001;1254;74396;-66
2024/01/02 01:25:55;;;;;;;23.50;10.60;;;;;;;8.86;63.12;98570.33;107986;1254;70492;-66
2024/01/02 01:28:22;;;;;;;23.30;9.30;;;;;;;8.66;62.73;98565.27;108028;1254;71653;-68
2024/01/02 01:30:49;;;;;;;20.50;9.80;;;;;;;8.80;62.13;98562.79;108002;1254;61628;-68
2024/01/02 01:33:16;;;;;;;19.20;10.60;;;;;;;8.88;62.02;98559.88;107811;1257;60306;-67
2024/01/02 01:35:43;;;;;;;16.80;9.10;;;;;;;8.96;61.76;98556.48;107931;1256;74255;-66
2024/01/02 01:38:10;;;;;;;22.10;11.10;;;;;;;9.03;61.50;98559.25;107994;1254;70154;-66
2024/01/02 01:40:36;;;;;;;17.60;8.80;;;;;;;8.86;61.56;98559.80;107766;1257;73384;-67
2024/01/02 01:43:11;;;;;;;18.70;9.00;;;;;;;8.81;61.89;98554.98;107878;1257;61104;-68
2024/01/02 01:45:39;;;;;;;16.70;8.70;;;;;;;8.62;62.30;98556.72;107998;1259;59098;-67
2024/01/02 01:48:08;;;;;;;11.90;6.20;;;;;;;8.72;62.14;98556.91;108056;1254;72469;-66
2024/01/02 01:50:36;;;;;;;13.80;8.20;;;;;;;8.79;61.83;98557.42;108019;1259;69172;-66
2024/01/02 01:53:03;;;;;;;11.00;7.60;;;;;;;8.97;61.59;98550.29;107809;1255;73265;-65
2024/01/02 01:55:30;;;;;;;9.20;5.90;;;;;;;8.99;61.16;98548.25;108005;1254;60288;-66
2024/01/02 01:57:57;;;;;;;12.20;7.20;;;;;;;8.83;61.35;98544.05;107803;1254;61069;-66
2024/01/02 02:00:23;;;;;;;9.20;5.60;;;;;;;8.91;60.95;98546.90;107643;1254;72598;-65
2024/01/02 02:02:50;;;;;;;11.20;6.50;;;;;;;8.78;61.27;98552.23;107802;1254;70122;-68
2024/01/02 02:05:18;;;;;;;9.00;6.10;;;;;;;8.70;61.53;98544.45;107816;1254;74012;-67
2024/01/02 02:07:45;;;;;;;9.20;5.90;;;;;;;8.91;60.76;98541.30;107991;1254;60324;-66
2024/01/02 02:10:13;;;;;;;11.70;6.40;;;;;;;8.93;60.51;98538.74;107996;1254;60424;-65
2024/01/02 02:12:39;;;;;;;9.20;5.50;;;;;;;9.01;60.41;98539.73;107740;1254;74386;-66
2024/01/02 02:15:08;;;;;;;10.30;5.60;;;;;;;9.05;60.24;98531.96;107939;1254;71019;-67
2024/01/02 02:17:43;;;;;;;9.10;5.70;;;;;;;8.95;60.24;98525.70;108026;1254;70582;-67
2024/01/02 02:20:10;;;;;;;6.70;4.60;;;;;;;9.12;59.88;98528.77;108104;1254;61080;-67
2024/01/02 02:22:38;;;;;;;9.40;5.70;;;;;;;9.04;60.06;98529.20;107825;1254;60765;-66
2024/01/02 02:25:06;;;;;;;6.00;3.90;;;;;;;9.13;59.81;98529.27;107950;1254;73749;-65
2024/01/02 02:27:32;;;;;;;6.80;4.40;;;;;;;8.86;60.50;98520.62;108004;1254;70167;-66
2024/01/02 02:29:59;;;;;;;7.20;4.50;;;;;;;8.79;60.77;98513.48;108019;1254;72022;-66
2024/01/02 02:32:26;;;;;;;4.70;3.00;;;;;;;8.85;60.43;98509.12;108041;1256;61212;-67
2024/01/02 02:34:53;;;;;;;5.10;4.10;;;;;;;8.90;60.08;98507.40;108018;1257;60290;-66
2024/01/02 02:37:20;;;;;;;7.60;3.90;;;;;;;8.89;60.02;98504.70;108120;1254;74413;-65
2024/01/02 02:39:47;;;;;;;4.80;3.20;;;;;;;8.72;60.22;98507.17;107962;1257;69620;-67
2024/01/02 02:42:15;;;;;;;4.60;3.50;;;;;;;8.68;60.34;98507.76;107990;1257;72945;-66
2024/01/02 02:44:43;;;;;;;3.90;2.80;;;;;;;8.74;60.12;98511.33;107987;1254;60985;-67
2024/01/02 02:47:12;;;;;;;4.00;2.80;;;;;;;8.81;59.87;98508.13;108059;1254;60396;-66
2024/01/02 02:49:38;;;;;;;5.70;3.60;;;;;;;8.66;60.11;98504.41;107960;1254;186202;-66
2024/01/02 02:54:03;;;;;;;5.60;4.00;;;;;;;6.89;65.39;98511.64;104943;1290;600647;-66
2024/01/02 02:56:30;;;;;;;3.40;2.30;;;;;;;7.67;63.01;98504.70;107303;1264;59945;-66
2024/01/02 02:58:57;;;;;;;4.60;2.90;;;;;;;7.68;62.71;98500.97;107357;1264;60028;-65
2024/01/02 03:01:25;;;;;;;3.50;2.30;;;;;;;7.88;62.18;98504.86;108132;1253;70646;-67
2024/01/02 03:03:52;;;;;;;2.70;2.20;;;;;;;8.10;61.64;98495.29;108141;1254;70260;-67
2024/01/02 03:06:20;;;;;;;2.60;2.20;;;;;;;7.90;61.57;98493.20;108076;1254;70738;-66
2024/01/02 03:08:48;;;;;;;2.90;2.00;;;;;;;7.94;61.34;98492.30;108119;1252;125267;-66
2024/01/02 03:11:15;;;;;;;3.50;2.40;;;;;;;7.92;61.10;98487.85;108142;1253;59230;-66
2024/01/02 03:13:43;;;;;;;5.20;2.70;;;;;;;7.89;61.15;98489.42;108083;1253;71884;-66
2024/01/02 03:16:10;;;;;;;2.50;1.90;;;;;;;7.84;61.25;98488.28;108156;1253;69950;-65
2024/01/02 03:18:38;;;;;;;4.90;2.80;;;;;;;7.73;61.47;98482.19;108137;1253;73450;-66
2024/01/02 03:21:07;;;;;;;4.00;2.10;;;;;;;7.58;61.89;98483.66;108040;1254;59687;-66
2024/01/02 03:23:35;;;;;;;3.30;2.00;;;;;;;7.53;61.78;98484.96;108096;1252;59667;-65
2024/01/02 03:26:03;;;;;;;5.00;2.60;;;;;;;7.60;61.57;98481.86;108046;1252;71554;-65
2024/01/02 03:28:31;;;;;;;2.20;1.50;;;;;;;7.80;61.04;98479.23;108124;1253;70146;-66
2024/01/02 03:30:59;;;;;;;3.50;2.20;;;;;;;7.71;61.37;98486.33;108211;1254;73403;-67
2024/01/02 03:33:28;;;;;;;5.10;1.90;;;;;;;7.87;61.07;98487.11;108092;1254;59496;-64
2024/01/02 03:35:55;;;;;;;2.20;1.60;;;;;;;7.78;61.27;98482.84;108007;1254;60050;-66
2024/01/02 03:38:24;;;;;;;3.00;2.30;;;;;;;7.82;61.30;98487.36;108121;1254;71801;-64
2024/01/02 03:40:51;;;;;;;2.50;1.60;;;;;;;7.88;61.30;98489.14;108081;1254;70611;-65
2024/01/02 03:43:19;;;;;;;2.50;2.00;;;;;;;7.90;61.38;98489.35;108052;1254;72735;-67
2024/01/02 03:45:46;;;;;;;4.50;2.30;;;;;;;7.75;61.57;98486.10;108033;1253;60881;-66
2024/01/02 03:48:13;;;;;;;1.80;1.40;;;;;;;7.78;61.47;98486.83;108068;1254;60106;-66
2024/01/02 03:50:41;;;;;;;4.30;2.60;;;;;;;7.76;61.63;98482.56;108047;1253;71777;-66
2024/01/02 03:53:09;;;;;;;4.30;2.10;;;;;;;7.92;61.45;98479.48;108111;1254;70157;-66
2024/01/02 03:55:36;;;;;;;3.20;1.90;;;;;;;8.31;60.55;98479.15;108064;1254;72768;-66
2024/01/02 03:58:04;;;;;;;4.30;2.80;;;;;;;8.28;60.41;98474.58;107939;1253;61206;-66
2024/01/02 04:00:33;;;;;;;3.20;2.10;;;;;;;8.38;60.15;98478.27;108077;1253;60178;-67
2024/01/02 04:03:01;;;;;;;4.00;2.50;;;;;;;8.44;59.85;98472.70;108147;1254;71855;-66
2024/01/02 04:05:29;;;;;;;3.60;2.10;;;;;;;8.43;59.93;98476.22;108080;1254;70318;-66
2024/01/02 04:07:57;;;;;;;3.70;1.60;;;;;;;8.21;60.21;98480.36;108053;1254;72063;-67
2024/01/02 04:10:24;;;;;;;4.50;2.20;;;;;;;8.22;60.10;98478.22;108063;1254;60857;-66
2024/01/02 04:12:52;;;;;;;3.50;1.70;;;;;;;8.36;59.91;98481.32;108036;1253;60135;-66
2024/01/02 04:15:19;;;;;;;3.30;2.00;;;;;;;8.24;60.12;98482.69;108086;1254;73054;-66
2024/01/02 04:17:47;;;;;;;2.60;1.80;;;;;;;8.16;60.16;98482.05;107990;1258;68668;-67
2024/01/02 04:20:15;;;;;;;5.70;1.80;;;;;;;7.99;60.27;98485.21;107937;1257;71282;-66
2024/01/02 04:22:43;;;;;;;3.10;1.90;;;;;;;8.09;60.03;98481.01;107925;1254;59985;-66
2024/01/02 04:25:10;;;;;;;4.30;2.20;;;;;;;8.18;59.75;98484.92;108059;1254;60031;-66
2024/01/02 04:27:38;;;;;;;3.40;1.80;;;;;;;8.34;59.43;98486.88;107933;1253;71814;-67
2024/01/02 04:30:07;;;;;;;2.80;2.10;;;;;;;8.29;59.28;98484.53;107925;1254;70314;-68
2024/01/02 04:32:35;;;;;;;2.30;1.50;;;;;;;8.30;59.38;98487.07;108117;1256;71602;-65
2024/01/02 04:35:03;;;;;;;1.60;1.50;;;;;;;8.22;59.34;98488.02;108166;1253;59640;-66
2024/01/02 04:37:31;;;;;;;3.20;2.10;;;;;;;8.09;59.21;98490.13;108143;1254;60033;-67
2024/01/02 04:39:59;;;;;;;3.50;1.50;;;;;;;8.32;58.89;98491.86;108138;1252;71718;-67
2024/01/02 04:42:27;;;;;;;3.70;2.00;;;;;;;8.29;58.91;98491.51;108094;1254;70132;-67
2024/01/02 04:44:54;;;;;;;1.80;1.50;;;;;;;8.26;58.76;98499.53;108089;1257;72541;-67
2024/01/02 04:47:22;;;;;;;2.30;1.70;;;;;;;8.40;58.34;98503.67;107985;1254;61079;-68
2024/01/02 04:49:49;;;;;;;2.80;1.70;;;;;;;8.54;57.85;98504.34;108198;1252;59663;-68
2024/01/02 04:52:17;;;;;;;2.30;1.40;;;;;;;8.45;57.77;98506.59;108105;1254;71824;-67
2024/01/02 04:54:45;;;;;;;2.70;1.60;;;;;;;8.42;57.47;98513.05;108145;1254;70471;-68
2024/01/02 04:57:13;;;;;;;2.40;1.60;;;;;;;8.40;57.26;98517.52;108088;1253;72706;-67
2024/01/02 04:59:40;;;;;;;2.90;1.50;;;;;;;8.50;56.97;98517.34;108153;1254;59508;-68
2024/01/02 05:02:08;;;;;;;2.40;1.70;;;;;;;7.91;57.74;98519.19;108086;1256;59669;-67
2024/01/02 05:04:36;;;;;;;2.30;1.60;;;;;;;7.66;58.79;98526.23;108051;1253;73276;-67
2024/01/02 05:07:03;;;;;;;3.30;1.90;;;;;;;7.68;58.90;98530.66;108132;1253;70282;-67
2024/01/02 05:09:31;;;;;;;2.80;1.70;;;;;;;7.68;59.02;98533.64;108139;1254;72671;-65
2024/01/02 05:11:59;;;;;;;1.60;1.50;;;;;;;7.70;58.92;98536.71;108058;1254;59718;-67
2024/01/02 05:14:27;;;;;;;2.50;2.00;;;;;;;7.43;59.59;98536.29;108141;1253;60035;-69
2024/01/02 05:16:55;;;;;;;2.80;1.60;;;;;;;7.45;59.56;98538.66;108135;1252;72195;-66
2024/01/02 05:19:23;;;;;;;3.00;2.10;;;;;;;7.42;59.50;98538.45;108169;1254;68322;-65
2024/01/02 05:21:53;;;;;;;2.60;1.60;;;;;;;7.54;59.15;98539.77;108109;1253;72426;-67
2024/01/02 05:24:21;;;;;;;1.70;1.60;;;;;;;7.45;59.24;98541.80;108146;1254;60111;-67
2024/01/02 05:26:48;;;;;;;3.60;2.10;;;;;;;7.50;59.14;98543.27;108085;1253;60035;-67
2024/01/02 05:29:16;;;;;;;4.20;2.00;;;;;;;7.45;59.22;98543.20;108088;1252;73079;-68
2024/01/02 05:31:44;;;;;;;5.00;2.50;;;;;;;7.34;59.80;98541.99;108123;1253;68952;-69
2024/01/02 05:34:11;;;;;;;8.10;3.30;;;;;;;7.41;59.56;98545.31;108052;1254;71704;-66
2024/01/02 05:36:39;;;;;;;4.70;2.50;;;;;;;7.47;59.53;98550.06;108037;1254;59776;-68
2024/01/02 05:39:07;;;;;;;5.60;2.40;;;;;;;7.36;59.43;98545.02;108018;1254;59423;-68
2024/01/02 05:41:35;;;;;;;4.60;2.10;;;;;;;7.27;59.61;98550.14;108182;1253;72948;-68
2024/01/02 05:44:03;;;;;;;2.90;1.80;;;;;;;7.17;59.65;98557.32;108118;1254;68542;-68
2024/01/02 05:46:31;;;;;;;3.90;2.10;;;;;;;7.00;59.97;98557.06;108124;1254;71293;-68
2024/01/02 05:48:58;;;;;;;3.40;2.10;;;;;;;7.11;59.83;98559.34;108157;1254;60884;-68
2024/01/02 05:51:26;;;;;;;4.90;2.10;;;;;;;7.21;59.76;98568.47;108134;1253;59141;-68
2024/01/02 05:53:54;;;;;;;3.40;2.10;;;;;;;7.12;59.88;98578.29;108101;1252;72739;-66
2024/01/02 05:56:22;;;;;;;2.40;1.30;;;;;;;7.15;59.84;98579.75;108081;1253;70246;-68
2024/01/02 05:58:51;;;;;;;3.60;2.00;;;;;;;7.21;59.62;98579.44;108109;1257;71381;-68
2024/01/02 06:01:19;;;;;;;5.90;2.20;;;;;;;7.39;59.30;98588.39;108085;1253;59670;-68
2024/01/02 06:03:46;;;;;;;3.80;1.60;;;;;;;7.43;59.24;98592.02;108078;1252;59503;-68
2024/01/02 06:06:14;;;;;;;2.90;1.90;;;;;;;7.27;59.49;98594.33;108087;1253;75441;-68
2024/01/02 06:08:43;;;;;;;3.70;1.60;;;;;;;7.31;59.56;98599.02;108047;1254;68914;-68
2024/01/02 06:11:10;;;;;;;4.00;2.10;;;;;;;7.32;59.34;98609.09;108081;1254;71618;-68
2024/01/02 06:13:38;;;;;;;2.30;1.60;;;;;;;7.32;59.37;98614.17;108028;1252;59502;-68
2024/01/02 06:16:09;;;;;;;3.60;1.50;;;;;;;7.22;59.60;98617.30;108022;1254;59994;-67
2024/01/02 06:18:37;;;;;;;2.90;1.50;;;;;;;7.27;59.48;98628.22;108038;1253;73045;-67
2024/01/02 06:21:05;;;;;;;1.80;1.30;;;;;;;7.27;59.37;98628.04;108113;1253;70833;-67
2024/01/02 06:23:33;;;;;;;1.40;1.20;;;;;;;7.25;59.57;98629.54;108159;1253;72719;-67
2024/01/02 06:26:14;;;;;;;2.90;1.70;;;;;;;7.35;59.39;98636.39;108064;1254;59609;-68
2024/01/02 06:28:41;;;;;;;1.50;1.40;;;;;;;7.24;59.56;98631.99;108141;1254;59653;-68
2024/01/02 06:31:09;;;;;;;2.10;1.70;;;;;;;7.30;59.64;98635.75;108093;1254;73074;-67
2024/01/02 06:33:36;;;;;;;1.60;1.20;;;;;;;7.27;59.55;98642.36;108135;1253;70042;-68
2024/01/02 06:36:05;;;;;;;2.70;1.50;;;;;;;7.25;59.79;98641.40;108128;1254;74781;-68
2024/01/02 06:38:32;;;;;;;2.00;1.30;;;;;;;7.48;59.13;98643.27;108107;1254;59666;-68
2024/01/02 06:41:00;;;;;;;2.10;1.50;;;;;;;7.52;59.03;98643.08;108131;1254;59645;-67
2024/01/02 06:43:28;;;;;;;3.00;1.60;;;;;;;7.41;59.35;98648.85;108193;1254;75228;-68
2024/01/02 06:45:59;;;;;;;2.10;1.40;;;;;;;7.44;59.15;98648.55;108149;1253;70353;-68
2024/01/02 06:48:26;;;;;;;1.80;1.30;;;;;;;7.42;59.13;98652.80;108131;1254;71658;-67
2024/01/02 06:50:54;;;;;;;3.60;1.90;;;;;;;7.39;59.28;98660.31;108140;1253;59480;-68
2024/01/02 06:53:22;;;;;;;2.40;1.50;;;;;;;7.34;59.26;98662.59;107866;1253;60485;-66
2024/01/02 06:55:49;;;;;;;1.60;1.20;;;;;;;7.42;59.00;98671.34;108128;1253;73525;-67
2024/01/02 06:58:17;;;;;;;5.90;2.00;;;;;;;7.44;58.94;98669.48;107887;1253;70083;-67
2024/01/02 07:00:44;;;;;;;2.30;1.80;;;;;;;7.38;58.83;98674.33;108053;1253;73179;-67
2024/01/02 07:03:12;;;;;;;1.50;1.30;;;;;;;7.38;58.55;98681.99;108040;1256;61085;-67
2024/01/02 07:05:39;;;;;;;1.80;1.10;;;;;;;7.43;58.49;98687.50;108013;1253;60293;-68
2024/01/02 07:08:07;;;;;;;1.90;1.30;;;;;;;7.25;58.61;98696.20;107775;1253;72701;-66
2024/01/02 07:10:35;;;;;;;3.00;1.60;;;;;;;7.15;58.53;98700.31;108059;1254;67958;-67
2024/01/02 07:13:03;;;;;;;1.70;1.10;;;;;;;7.20;58.36;98706.03;108061;1253;74884;-68
2024/01/02 07:15:32;;;;;;;1.20;0.90;;;;;;;7.30;57.81;98702.94;108237;1257;59904;-67
2024/01/02 07:18:00;;;;;;;1.90;1.50;;;;;;;7.33;57.63;98706.65;108035;1253;60567;-66
2024/01/02 07:20:28;;;;;;;1.10;0.80;;;;;;;7.35;57.21;98714.42;108066;1254;72431;-67
2024/01/02 07:22:56;;;;;;;2.40;1.40;;;;;;;7.30;56.91;98715.19;107920;1253;68927;-67
2024/01/02 07:25:24;;;;;;;2.70;1.20;;;;;;;7.23;57.05;98715.13;108044;1253;72624;-68
2024/01/02 07:27:51;;;;;;;0.90;0.90;;;;;;;7.23;56.96;98724.42;108047;1253;60841;-66
2024/01/02 07:30:20;;;;;;;1.40;1.30;;;;;;;6.91;57.46;98728.83;108113;1253;60218;-67
2024/01/02 07:32:48;;;;;;;1.50;1.20;;;;;;;7.17;56.46;98737.24;107862;1254;72651;-67
2024/01/02 07:35:17;;;;;;;1.50;1.20;;;;;;;7.15;56.56;98740.67;107914;1256;68878;-71
2024/01/02 07:37:46;;;;;;;1.50;1.30;;;;;;;7.15;56.30;98749.21;107928;1256;72976;-66
2024/01/02 07:40:13;;;;;;;2.80;1.60;;;;;;;7.10;56.27;98758.15;107902;1254;60594;-69
2024/01/02 07:42:41;;;;;;;1.50;1.30;;;;;;;7.01;56.61;98760.69;108010;1256;60466;-66
2024/01/02 07:45:10;;;;;;;1.40;1.30;;;;;;;6.83;56.31;98768.07;107936;1254;73876;-67
2024/01/02 07:47:38;;;;;;;2.00;1.60;;;;;;;6.97;55.92;98770.61;107955;1255;70973;-67
2024/01/02 07:50:06;;;;;;;1.60;1.40;;;;;;;6.93;55.84;98779.51;107898;1255;71248;-67
2024/01/02 07:52:34;;;;;;;2.20;1.80;;;;;;;6.87;55.89;98779.39;108074;1254;60896;-67
2024/01/02 07:55:03;;;;;;;2.10;1.50;;;;;;;6.90;55.69;98788.17;108100;1253;60561;-67
2024/01/02 07:57:30;;;;;;;1.90;1.70;;;;;;;7.01;55.13;98795.54;108131;1253;74140;-67
2024/01/02 07:59:57;;;;;;;2.00;1.60;;;;;;;6.91;54.53;98801.58;108144;1257;70855;-68
2024/01/02 08:02:25;;;;;;;2.50;2.20;;;;;;;6.62;53.49;98810.15;108121;1254;71741;-67
2024/01/02 08:04:52;;;;;;;2.60;2.10;;;;;;;6.63;53.73;98816.05;108070;1253;63258;-67
2024/01/02 08:07:20;;;;;;;2.80;2.20;;;;;;;6.59;52.67;98811.64;108134;1254;60478;-67
2024/01/02 08:09:47;;;;;;;2.20;2.00;;;;;;;6.36;51.62;98825.69;108075;1253;73933;-68
2024/01/02 08:12:15;;;;;;;2.90;2.00;;;;;;;6.46;52.00;98831.88;108099;1254;69530;-67
2024/01/02 08:14:43;;;;;;;2.70;2.00;;;;;;;6.49;51.67;98838.91;108110;1257;72483;-67
2024/01/02 08:17:11;;;;;;;3.40;2.20;;;;;;;6.53;51.55;98842.75;108078;1254;60524;-67
2024/01/02 08:19:38;;;;;;;2.90;1.90;;;;;;;6.51;51.36;98852.23;108150;1253;60331;-67
2024/01/02 08:22:07;;;;;;;3.20;2.20;;;;;;;6.44;51.39;98856.90;108156;1253;72672;-67
2024/01/02 08:24:34;;;;;;;2.80;2.20;;;;;;;6.20;51.37;98864.31;108131;1253;70336;-67
2024/01/02 08:27:02;;;;;;;3.40;2.30;;;;;;;6.07;50.86;98868.12;107902;1254;71504;-67
2024/01/02 08:29:31;;;;;;;2.10;1.90;;;;;;;6.12;51.15;98868.28;108129;1253;60831;-67
2024/01/02 08:31:58;;;;;;;3.00;2.30;;;;;;;6.18;51.17;98877.81;108192;1253;59560;-67
2024/01/02 08:34:26;;;;;;;3.60;2.30;;;;;;;6.20;50.93;98886.98;108176;1254;73025;-66
2024/01/02 08:36:54;;;;;;;2.80;2.30;;;;;;;6.16;50.90;98892.35;108084;1256;68876;-67
2024/01/02 08:39:21;;;;;;;4.00;2.70;;;;;;;6.05;50.85;98896.94;108089;1253;71261;-67
2024/01/02 08:41:49;;;;;;;2.80;2.20;;;;;;;5.83;50.80;98906.80;108113;1254;60206;-68
2024/01/02 08:44:16;;;;;;;2.60;2.30;;;;;;;5.83;51.54;98908.04;108098;1253;60414;-68
2024/01/02 08:46:44;;;;;;;4.00;2.60;;;;;;;5.81;50.89;98910.01;108111;1252;73839;-67
2024/01/02 08:49:13;;;;;;;3.80;2.60;;;;;;;5.63;51.03;98918.17;108106;1253;69939;-67
2024/01/02 08:51:42;;;;;;;2.70;2.40;;;;;;;5.71;50.84;98917.70;108118;1254;71444;-67
2024/01/02 08:54:09;;;;;;;3.90;2.70;;;;;;;5.37;50.82;98914.75;108182;1253;60302;-67
2024/01/02 08:56:37;;;;;;;4.30;2.50;;;;;;;5.54;50.98;98922.84;108052;1254;60613;-68
2024/01/02 08:59:04;;;;;;;4.00;2.60;;;;;;;5.44;51.17;98918.83;108114;1258;72612;-68
2024/01/02 09:01:32;;;;;;;4.20;3.10;;;;;;;5.61;51.06;98923.97;108066;1252;68708;-67
2024/01/02 09:04:00;;;;;;;4.90;3.20;;;;;;;5.63;51.37;98936.94;108087;1254;72913;-67
2024/01/02 09:06:33;;;;;;;4.50;3.00;;;;;;;5.77;51.21;98940.13;108124;1253;60312;-67
2024/01/02 09:09:00;;;;;;;4.50;3.40;;;;;;;5.69;50.39;98945.63;108167;1254;60284;-67
2024/01/02 09:11:28;;;;;;;5.30;3.20;;;;;;;5.58;50.59;98948.79;108044;1252;71758;-67
2024/01/02 09:13:55;;;;;;;4.30;3.00;;;;;;;5.41;50.30;98954.27;108146;1254;68826;-67
2024/01/02 09:16:31;;;;;;;5.10;3.50;;;;;;;5.53;50.62;98962.92;108113;1254;71466;-69
2024/01/02 09:18:58;;;;;;;4.50;3.10;;;;;;;5.57;50.70;98962.08;108146;1253;60973;-67
2024/01/02 09:21:26;;;;;;;7.30;3.10;;;;;;;5.48;50.16;98961.00;108126;1254;60796;-67
2024/01/02 09:23:54;;;;;;;4.90;3.20;;;;;;;5.45;50.71;98969.29;108145;1254;73953;-67
2024/01/02 09:26:25;;;;;;;5.00;3.40;;;;;;;5.47;50.91;98973.73;108159;1254;69939;-67
2024/01/02 09:28:52;;;;;;;;;;;;;;;5.26;51.09;98974.13;108060;1254;71809;-67
2024/01/02 09:31:24;;;;;;;4.90;3.60;;;;;;;5.15;51.51;98984.03;108099;1254;60338;-67
2024/01/02 09:33:51;;;;;;;5.90;3.60;;;;;;;5.29;51.30;98983.77;108027;1252;59265;-66
2024/01/02 09:36:19;;;;;;;5.30;3.60;;;;;;;5.38;51.15;98988.87;108064;1254;73801;-67
2024/01/02 09:38:46;;;;;;;6.00;4.00;;;;;;;5.30;51.33;98990.70;108073;1253;70759;-67
2024/01/02 09:41:26;;;;;;;6.50;3.40;;;;;;;5.21;51.19;98991.17;108092;1254;71851;-65
2024/01/02 09:43:58;;;;;;;4.60;3.20;;;;;;;5.17;50.60;98991.30;108040;1254;60325;-67
2024/01/02 09:46:46;;;;;;;5.20;3.40;;;;;;;4.96;50.45;98989.89;108043;1253;59084;-66
2024/01/02 09:49:30;;;;;;;4.70;3.70;;;;;;;4.86;50.19;98986.19;107948;1254;74328;-66
2024/01/02 09:52:56;;;;;;;5.00;3.50;;;;;;;4.99;50.26;98988.73;108023;1254;70185;-67
2024/01/02 09:55:47;;;;;;;4.50;3.30;;;;;;;5.10;50.38;98985.78;107508;1260;72791;-67
2024/01/02 09:58:17;;;;;;;;;;;;;;;5.14;50.00;98984.41;107561;1260;60861;-67
2024/01/02 10:00:56;;;;;;;5.20;3.80;;;;;;;5.12;50.00;98982.91;107931;1254;60315;-67
2024/01/02 10:03:43;;;;;;;14.50;8.40;;;;;;;5.23;49.76;98984.83;108044;1252;73892;-67
2024/01/02 10:06:35;;;;;;;7.10;4.20;;;;;;;5.14;49.40;98991.57;108059;1252;70121;-67
2024/01/02 10:09:22;;;;;;;7.80;4.00;;;;;;;5.03;49.20;98990.89;108066;1254;71574;-67
2024/01/02 10:12:03;;;;;;;6.60;3.70;;;;;;;4.99;49.00;98994.47;108066;1254;60894;-67
2024/01/02 10:15:06;;;;;;;5.30;4.00;;;;;;;4.90;48.68;98999.30;108057;1259;60762;-67
2024/01/02 10:17:43;;;;;;;4.70;3.20;;;;;;;4.81;48.81;98998.02;107642;1254;73771;-67
2024/01/02 10:20:18;;;;;;;8.00;3.90;;;;;;;4.77;48.92;99000.56;108032;1253;70025;-68
2024/01/02 10:22:54;;;;;;;6.60;3.50;;;;;;;4.91;48.67;98999.48;108031;1257;71445;-67
2024/01/02 10:25:22;;;;;;;7.00;3.80;;;;;;;4.75;48.54;98997.34;107969;1253;60862;-67
2024/01/02 10:28:16;;;;;;;7.70;3.50;;;;;;;4.64;48.90;98992.11;107946;1253;60315;-67
2024/01/02 10:31:03;;;;;;;7.40;4.10;;;;;;;4.38;48.58;98986.13;108109;1253;73289;-67
2024/01/02 10:33:38;;;;;;;7.80;4.00;;;;;;;4.35;48.57;98992.46;108158;1254;69225;-68
2024/01/02 10:36:09;;;;;;;8.00;4.10;;;;;;;4.35;48.97;98989.17;108120;1258;71148;-68
2024/01/02 10:39:02;;;;;;;11.00;4.00;;;;;;;4.29;48.35;98983.77;108095;1254;60443;-67
2024/01/02 10:41:50;;;;;;;7.90;3.80;;;;;;;4.33;48.67;98987.85;108168;1253;60316;-68
2024/01/02 10:44:30;;;;;;;5.60;3.90;;;;;;;4.31;49.15;98992.40;107777;1252;76118;-67
2024/01/02 10:47:05;;;;;;;6.70;4.00;;;;;;;4.48;49.07;98993.30;108072;1254;70445;-68
2024/01/02 10:49:40;;;;;;;7.90;4.50;;;;;;;4.59;48.91;98991.76;108080;1258;72694;-67
2024/01/02 10:52:24;;;;;;;7.30;4.70;;;;;;;4.64;49.01;98992.45;108014;1253;60297;-68
2024/01/02 10:55:18;;;;;;;7.90;4.40;;;;;;;4.66;48.85;98992.42;108008;1254;60849;-65
2024/01/02 10:58:10;;;;;;;7.50;4.60;;;;;;;4.69;48.91;98994.05;108030;1253;72821;-66
2024/01/02 11:00:45;;;;;;;7.90;4.30;;;;;;;4.74;49.22;98996.52;108011;1253;70318;-67
2024/01/02 11:03:15;;;;;;;8.40;4.60;;;;;;;4.76;48.82;99002.15;107955;1253;74408;-65
2024/01/02 11:05:44;;;;;;;5.90;4.00;;;;;;;4.77;48.74;99001.09;107972;1254;61089;-67
2024/01/02 11:08:20;;;;;;;7.50;4.10;;;;;;;4.77;48.95;99006.30;108019;1253;60268;-67
2024/01/02 11:10:58;;;;;;;8.10;4.50;;;;;;;4.74;48.73;99009.71;108001;1253;72591;-69
2024/01/02 11:13:27;;;;;;;7.20;4.50;;;;;;;4.70;48.80;99008.45;107973;1253;69728;-67
2024/01/02 11:16:00;;;;;;;9.60;4.50;;;;;;;4.70;48.73;99013.65;108039;1254;72476;-66
2024/01/02 11:18:31;;;;;;;10.00;4.30;;;;;;;4.64;48.50;99017.31;108024;1255;60775;-67
2024/01/02 11:21:24;;;;;;;8.80;4.80;;;;;;;4.74;48.58;99020.32;108042;1253;60318;-69
2024/01/02 11:23:54;;;;;;;8.60;5.10;;;;;;;4.71;48.59;99019.02;108035;1253;72649;-68
2024/01/02 11:26:24;;;;;;;10.30;4.70;;;;;;;4.63;48.98;99020.83;107989;1253;70467;-67
2024/01/02 11:28:52;;;;;;;8.00;4.70;;;;;;;4.60;49.11;99024.20;107975;1253;72737;-67
2024/01/02 11:31:20;;;;;;;7.30;4.80;;;;;;;4.57;49.00;99027.09;107975;1256;60672;-68
2024/01/02 11:34:06;;;;;;;7.80;4.80;;;;;;;4.55;49.24;99034.79;107783;1255;60828;-67
2024/01/02 11:36:53;;;;;;;7.70;4.80;;;;;;;4.51;50.16;99033.54;107883;1255;73826;-67
2024/01/02 11:39:33;;;;;;;10.40;4.70;;;;;;;4.46;49.89;99037.34;107891;1256;69684;-67
2024/01/02 11:42:09;;;;;;;6.20;4.40;;;;;;;4.45;50.16;99034.27;107913;1254;74867;-68
2024/01/02 11:44:58;;;;;;;9.20;4.60;;;;;;;4.53;50.34;99037.66;107939;1256;61678;-68